createdAt,value
2022-12-24T00:01:35.758Z,13.50
2022-12-24T00:04:04.546Z,13.60
2022-12-24T00:06:33.331Z,13.50
2022-12-24T00:09:01.900Z,13.50
2022-12-24T00:11:32.745Z,13.50
2022-12-24T00:14:01.314Z,13.40
2022-12-24T00:16:30.021Z,13.30
2022-12-24T00:18:58.665Z,13.20
2022-12-24T00:21:27.312Z,13.20
2022-12-24T00:23:55.848Z,13.20
2022-12-24T00:26:24.446Z,13.20
2022-12-24T00:28:53.016Z,13.00
2022-12-24T00:31:21.699Z,13.00
2022-12-24T00:33:50.306Z,13.10
2022-12-24T00:36:20.290Z,13.00
2022-12-24T00:38:49.138Z,13.00
2022-12-24T00:41:28.304Z,13.00
2022-12-24T00:43:59.298Z,13.00
2022-12-24T00:46:30.085Z,13.10
2022-12-24T00:48:58.694Z,13.20
2022-12-24T00:51:27.474Z,13.20
2022-12-24T00:53:56.705Z,13.30
2022-12-24T00:56:25.246Z,13.30
2022-12-24T00:58:53.934Z,13.30
2022-12-24T01:01:23.550Z,13.20
2022-12-24T01:03:52.692Z,13.20
2022-12-24T01:06:22.814Z,13.30
2022-12-24T01:08:54.348Z,13.30
2022-12-24T01:11:22.900Z,13.40
2022-12-24T01:13:51.438Z,13.40
2022-12-24T01:16:21.277Z,13.40
2022-12-24T01:18:50.173Z,13.40
2022-12-24T01:21:18.872Z,13.30
2022-12-24T01:23:47.578Z,13.20
2022-12-24T01:26:16.158Z,13.30
2022-12-24T01:28:44.712Z,13.20
2022-12-24T01:31:18.879Z,13.00
2022-12-24T01:33:49.589Z,13.10
2022-12-24T01:36:18.217Z,13.10
2022-12-24T01:38:46.757Z,13.20
2022-12-24T01:41:36.290Z,13.10
2022-12-24T01:44:35.602Z,12.90
2022-12-24T01:47:20.410Z,12.90
2022-12-24T01:50:04.190Z,13.00
2022-12-24T01:52:36.041Z,12.90
2022-12-24T01:55:19.813Z,12.60
2022-12-24T01:57:51.437Z,12.60
2022-12-24T02:00:20.753Z,12.50
2022-12-24T02:02:52.414Z,12.50
2022-12-24T02:05:27.053Z,12.50
2022-12-24T02:07:56.760Z,12.40
2022-12-24T02:10:25.420Z,12.50
2022-12-24T02:12:54.308Z,12.60
2022-12-24T02:15:23.290Z,12.40
2022-12-24T02:18:03.604Z,12.40
2022-12-24T02:20:51.919Z,12.50
2022-12-24T02:23:50.939Z,12.30
2022-12-24T02:26:28.579Z,12.00
2022-12-24T02:29:17.964Z,12.40
2022-12-24T02:32:04.734Z,12.40
2022-12-24T02:34:54.458Z,12.50
2022-12-24T02:37:26.082Z,12.50
2022-12-24T02:40:16.017Z,12.40
2022-12-24T02:42:43.188Z,12.40
2022-12-24T02:45:38.934Z,12.40
2022-12-24T02:48:08.607Z,12.40
2022-12-24T02:50:37.607Z,12.40
2022-12-24T02:53:07.380Z,12.50
2022-12-24T02:55:41.934Z,12.60
2022-12-24T02:58:36.418Z,12.70
2022-12-24T03:01:20.198Z,12.70
2022-12-24T03:04:11.386Z,12.90
2022-12-24T03:06:45.437Z,13.00
2022-12-24T03:09:29.498Z,13.00
2022-12-24T03:12:07.100Z,13.10
2022-12-24T03:14:36.989Z,13.00
2022-12-24T03:17:24.909Z,13.10
2022-12-24T03:19:56.371Z,13.30
2022-12-24T03:22:28.070Z,13.30
2022-12-24T03:24:57.161Z,13.30
2022-12-24T03:27:31.240Z,13.30
2022-12-24T03:30:00.038Z,13.30
2022-12-24T03:32:34.677Z,13.50
2022-12-24T03:35:03.295Z,13.30
2022-12-24T03:37:31.849Z,13.40
2022-12-24T03:40:00.455Z,13.40
2022-12-24T03:42:28.970Z,13.40
2022-12-24T03:44:57.516Z,13.20
2022-12-24T03:49:54.346Z,13.20
2022-12-24T03:52:22.965Z,13.30
2022-12-24T03:54:51.554Z,13.30
2022-12-24T03:57:20.111Z,13.30
2022-12-24T03:59:48.663Z,13.30
2022-12-24T04:02:17.528Z,13.30
2022-12-24T04:07:15.849Z,13.40
2022-12-24T04:09:44.402Z,13.30
2022-12-24T04:12:13.012Z,13.30
2022-12-24T04:14:41.552Z,13.30
2022-12-24T04:17:10.182Z,13.30
2022-12-24T04:19:38.744Z,13.30
2022-12-24T04:22:07.302Z,13.30
2022-12-24T04:24:35.897Z,13.30
2022-12-24T04:27:04.538Z,13.20
2022-12-24T04:29:33.208Z,13.20
2022-12-24T04:32:01.893Z,13.30
2022-12-24T04:34:30.499Z,13.30
2022-12-24T04:36:59.056Z,13.30
2022-12-24T04:39:27.651Z,13.40
2022-12-24T04:41:56.268Z,13.30
2022-12-24T04:44:24.892Z,13.40
2022-12-24T04:46:53.509Z,13.20
2022-12-24T04:49:22.092Z,13.30
2022-12-24T04:51:50.653Z,13.30
2022-12-24T04:54:19.220Z,13.00
2022-12-24T04:56:47.790Z,13.30
2022-12-24T04:59:16.302Z,13.40
2022-12-24T05:01:44.965Z,13.10
2022-12-24T05:04:13.535Z,13.10
2022-12-24T05:06:42.111Z,13.00
2022-12-24T05:09:10.649Z,13.20
2022-12-24T05:11:39.189Z,13.20
2022-12-24T05:14:07.757Z,13.00
2022-12-24T05:16:36.400Z,13.00
2022-12-24T05:19:05.113Z,13.20
2022-12-24T05:21:33.738Z,13.10
2022-12-24T05:24:20.307Z,13.20
2022-12-24T05:26:54.988Z,13.10
2022-12-24T05:29:23.908Z,13.20
2022-12-24T05:31:52.546Z,13.00
2022-12-24T05:34:21.075Z,13.20
2022-12-24T05:36:49.642Z,13.20
2022-12-24T05:39:19.219Z,13.10
2022-12-24T05:41:47.994Z,13.20
2022-12-24T05:44:17.537Z,13.20
2022-12-24T05:46:46.520Z,13.20
2022-12-24T05:49:15.502Z,13.30
2022-12-24T05:51:44.104Z,13.20
2022-12-24T05:54:13.016Z,13.40
2022-12-24T05:56:41.643Z,13.30
2022-12-24T05:59:10.193Z,13.40
2022-12-24T06:01:38.984Z,13.20
2022-12-24T06:04:07.691Z,13.20
2022-12-24T06:06:36.229Z,13.30
2022-12-24T06:09:05.037Z,13.60
2022-12-24T06:11:33.628Z,13.30
2022-12-24T06:16:30.687Z,13.30
2022-12-24T06:18:59.207Z,13.40
2022-12-24T06:21:27.759Z,13.20
2022-12-24T06:23:56.302Z,13.40
2022-12-24T06:26:24.835Z,13.20
2022-12-24T06:28:53.389Z,13.30
2022-12-24T06:31:24.067Z,13.30
2022-12-24T06:33:53.449Z,13.30
2022-12-24T06:36:24.710Z,13.20
2022-12-24T06:38:55.457Z,13.20
2022-12-24T06:41:24.400Z,12.00
2022-12-24T06:43:54.381Z,13.00
2022-12-24T06:46:23.427Z,13.00
2022-12-24T06:48:51.991Z,12.90
2022-12-24T06:53:53.618Z,13.10
2022-12-24T06:56:22.716Z,13.00
2022-12-24T06:58:51.492Z,13.10
2022-12-24T07:01:21.223Z,13.30
2022-12-24T07:03:50.010Z,13.20
2022-12-24T07:06:24.428Z,13.20
2022-12-24T07:08:53.013Z,13.20
2022-12-24T07:11:22.463Z,13.30
2022-12-24T07:13:51.007Z,13.20
2022-12-24T07:16:19.810Z,13.30
2022-12-24T07:18:48.558Z,13.30
2022-12-24T07:21:17.127Z,13.30
2022-12-24T07:26:14.066Z,13.30
2022-12-24T07:28:42.635Z,13.30
2022-12-24T07:31:11.285Z,13.10
2022-12-24T07:33:40.024Z,13.00
2022-12-24T07:36:11.397Z,13.00
2022-12-24T07:41:08.220Z,12.90
2022-12-24T07:43:36.767Z,12.90
2022-12-24T07:46:05.872Z,12.90
2022-12-24T07:48:34.656Z,12.90
2022-12-24T07:51:03.650Z,12.70
2022-12-24T07:53:32.817Z,12.60
2022-12-24T07:56:05.165Z,12.80
2022-12-24T07:58:35.098Z,12.80
2022-12-24T08:01:03.725Z,13.00
2022-12-24T08:03:32.396Z,13.00
2022-12-24T08:06:01.237Z,12.90
2022-12-24T08:08:30.197Z,13.10
2022-12-24T08:11:04.490Z,13.10
2022-12-24T08:13:34.064Z,13.10
2022-12-24T08:16:03.813Z,13.20
2022-12-24T08:18:32.587Z,13.20
2022-12-24T08:21:01.252Z,13.20
2022-12-24T08:23:30.020Z,13.20
2022-12-24T08:25:58.559Z,13.30
2022-12-24T08:28:27.207Z,13.40
2022-12-24T08:30:56.254Z,13.30
2022-12-24T08:33:24.812Z,13.30
2022-12-24T08:35:55.841Z,13.30
2022-12-24T08:38:24.661Z,13.40
2022-12-24T08:40:55.961Z,13.60
2022-12-24T08:43:26.673Z,13.60
2022-12-24T08:45:55.338Z,12.40
2022-12-24T08:48:23.946Z,13.70
2022-12-24T08:50:52.587Z,13.80
2022-12-24T08:53:21.204Z,13.70
2022-12-24T08:55:55.629Z,13.80
2022-12-24T08:58:19.942Z,13.80
2022-12-24T09:00:48.599Z,13.80
2022-12-24T09:03:22.102Z,13.90
2022-12-24T09:05:47.840Z,13.90
2022-12-24T09:08:16.401Z,13.80
2022-12-24T09:10:46.353Z,13.90
2022-12-24T09:13:14.925Z,13.80
2022-12-24T09:15:43.466Z,13.80
2022-12-24T09:18:12.010Z,13.90
2022-12-24T09:20:46.569Z,13.90
2022-12-24T09:23:10.769Z,13.90
2022-12-24T09:25:43.902Z,14.00
2022-12-24T09:28:12.512Z,14.10
2022-12-24T09:30:41.072Z,13.90
2022-12-24T09:33:09.650Z,14.00
2022-12-24T09:35:41.334Z,13.90
2022-12-24T09:38:10.142Z,14.10
2022-12-24T09:40:41.068Z,14.10
2022-12-24T09:45:42.746Z,14.20
2022-12-24T09:48:14.417Z,14.40
2022-12-24T09:50:48.568Z,14.30
2022-12-24T09:53:26.307Z,14.40
2022-12-24T09:56:03.092Z,14.40
2022-12-24T09:58:37.810Z,14.60
2022-12-24T10:01:07.031Z,14.60
2022-12-24T10:03:35.887Z,14.60
2022-12-24T10:06:10.417Z,14.70
2022-12-24T10:09:01.426Z,14.80
2022-12-24T13:23:21.610Z,19.00
2022-12-24T13:52:55.396Z,18.20
2022-12-24T13:55:23.157Z,17.80
2022-12-24T14:12:50.352Z,15.90
